createdAt,value
2023-01-18T00:02:03.946Z,3.88
2023-01-18T00:07:35.714Z,3.45
2023-01-18T00:10:23.534Z,2.33
2023-01-18T00:13:09.764Z,2.97
2023-01-18T00:16:02.074Z,2.50
2023-01-18T00:18:55.678Z,2.28
2023-01-18T00:24:30.852Z,2.78
2023-01-18T00:27:17.139Z,3.20
2023-01-18T00:30:05.029Z,2.40
2023-01-18T00:32:56.973Z,2.92
2023-01-18T00:35:42.875Z,2.33
2023-01-18T00:38:29.443Z,1.88
2023-01-18T00:41:15.254Z,1.50
2023-01-18T00:44:01.519Z,1.20
2023-01-18T00:46:49.992Z,1.33
2023-01-18T00:49:36.200Z,1.25
2023-01-18T00:52:22.111Z,1.40
2023-01-18T00:55:08.796Z,1.40
2023-01-18T00:57:54.857Z,1.35
2023-01-18T01:00:42.165Z,1.42
2023-01-18T01:03:28.001Z,1.13
2023-01-18T01:06:33.347Z,1.60
2023-01-18T01:09:24.759Z,1.23
2023-01-18T01:12:29.711Z,1.40
2023-01-18T01:15:34.418Z,1.40
2023-01-18T01:18:39.064Z,1.38
2023-01-18T01:21:43.773Z,1.45
2023-01-18T01:24:48.540Z,1.05
2023-01-18T01:27:34.417Z,1.05
2023-01-18T01:30:20.340Z,1.17
2023-01-18T01:33:06.089Z,1.00
2023-01-18T01:35:56.860Z,1.48
2023-01-18T01:38:43.205Z,1.52
2023-01-18T01:41:31.661Z,1.10
2023-01-18T01:44:17.688Z,0.90
2023-01-18T01:47:06.734Z,1.10
2023-01-18T01:49:57.370Z,1.20
2023-01-18T01:52:45.054Z,1.15
2023-01-18T01:55:37.593Z,1.30
2023-01-18T01:58:26.756Z,1.00
2023-01-18T02:01:12.909Z,1.17
2023-01-18T02:04:00.590Z,1.30
2023-01-18T02:06:46.582Z,1.15
2023-01-18T02:09:32.253Z,1.48
2023-01-18T02:12:18.672Z,1.40
2023-01-18T02:15:05.182Z,1.23
2023-01-18T02:18:08.664Z,0.50
2023-01-18T02:21:29.789Z,0.70
2023-01-18T02:24:41.014Z,0.75
2023-01-18T02:27:33.943Z,1.08
2023-01-18T02:33:38.399Z,0.60
2023-01-18T02:36:46.987Z,0.77
2023-01-18T02:40:09.979Z,1.10
2023-01-18T02:43:16.526Z,1.20
2023-01-18T02:46:22.142Z,0.90
2023-01-18T02:49:12.653Z,0.80
2023-01-18T02:52:06.663Z,0.50
2023-01-18T02:54:52.597Z,0.60
2023-01-18T02:57:38.953Z,0.70
2023-01-18T03:00:26.146Z,0.70
2023-01-18T03:03:12.387Z,0.88
2023-01-18T03:06:01.936Z,0.60
2023-01-18T03:08:50.051Z,0.90
2023-01-18T03:11:43.662Z,0.95
2023-01-18T03:14:48.021Z,0.52
2023-01-18T03:17:46.012Z,0.50
2023-01-18T03:20:34.802Z,0.90
2023-01-18T03:23:37.957Z,0.80
2023-01-18T03:26:25.048Z,0.90
2023-01-18T03:29:32.071Z,2.22
2023-01-18T03:32:37.207Z,4.53
2023-01-18T03:35:27.236Z,3.60
2023-01-18T03:38:13.930Z,2.22
2023-01-18T03:41:01.280Z,1.52
2023-01-18T03:43:50.695Z,1.35
2023-01-18T03:46:37.006Z,1.73
2023-01-18T03:49:22.959Z,1.67
2023-01-18T03:52:24.027Z,1.30
2023-01-18T03:55:24.241Z,1.30
2023-01-18T03:58:12.068Z,1.30
2023-01-18T04:00:58.502Z,1.02
2023-01-18T04:03:44.545Z,1.10
2023-01-18T04:06:32.729Z,1.15
2023-01-18T04:09:18.755Z,1.10
2023-01-18T04:12:04.941Z,0.90
2023-01-18T04:14:51.237Z,1.33
2023-01-18T04:17:36.842Z,1.73
2023-01-18T04:20:23.821Z,1.10
2023-01-18T04:23:09.622Z,1.25
2023-01-18T04:25:55.477Z,1.60
2023-01-18T04:28:42.668Z,1.85
2023-01-18T04:31:28.730Z,2.50
2023-01-18T04:34:14.841Z,1.83
2023-01-18T04:37:01.141Z,1.50
2023-01-18T04:39:47.701Z,1.02
2023-01-18T04:42:33.698Z,0.98
2023-01-18T04:45:20.154Z,0.80
2023-01-18T04:48:06.138Z,1.05
2023-01-18T04:50:52.539Z,1.20
2023-01-18T04:53:39.878Z,1.30
2023-01-18T04:56:26.074Z,1.00
2023-01-18T04:59:18.601Z,1.30
2023-01-18T05:02:04.385Z,1.67
2023-01-18T05:04:50.369Z,2.42
2023-01-18T05:07:36.155Z,2.42
2023-01-18T05:10:22.187Z,2.33
2023-01-18T05:13:08.098Z,1.58
2023-01-18T05:15:54.077Z,1.98
2023-01-18T05:18:40.410Z,1.70
2023-01-18T05:21:26.627Z,1.70
2023-01-18T05:24:12.477Z,1.90
2023-01-18T05:26:58.691Z,3.17
2023-01-18T05:29:44.785Z,3.38
2023-01-18T05:32:30.693Z,2.72
2023-01-18T05:35:16.612Z,1.88
2023-01-18T05:38:02.451Z,2.35
2023-01-18T05:40:52.267Z,2.53
2023-01-18T05:43:38.510Z,2.40
2023-01-18T05:46:24.568Z,2.08
2023-01-18T05:49:10.301Z,2.45
2023-01-18T05:51:56.191Z,2.60
2023-01-18T05:54:41.958Z,2.17
2023-01-18T05:57:27.963Z,1.85
2023-01-18T06:00:13.961Z,2.30
2023-01-18T06:03:01.279Z,3.22
2023-01-18T06:05:48.614Z,3.08
2023-01-18T06:08:35.022Z,2.45
2023-01-18T06:11:20.860Z,2.75
2023-01-18T06:14:06.761Z,2.67
2023-01-18T06:16:52.479Z,3.95
2023-01-18T06:19:38.268Z,3.20
2023-01-18T06:22:24.241Z,3.28
2023-01-18T06:25:10.300Z,3.03
2023-01-18T06:27:56.695Z,3.83
2023-01-18T06:30:42.951Z,4.25
2023-01-18T06:33:28.858Z,4.32
2023-01-18T06:36:15.030Z,4.03
2023-01-18T06:39:01.229Z,3.72
2023-01-18T06:41:47.225Z,3.60
2023-01-18T06:44:33.227Z,4.40
2023-01-18T06:47:20.294Z,4.32
2023-01-18T06:50:06.359Z,3.40
2023-01-18T06:52:52.549Z,3.33
2023-01-18T06:55:38.289Z,3.25
2023-01-18T06:58:26.031Z,3.45
2023-01-18T07:01:12.119Z,2.80
2023-01-18T07:03:57.982Z,2.38
2023-01-18T07:06:44.160Z,2.10
2023-01-18T07:09:29.927Z,2.78
2023-01-18T07:12:15.778Z,2.15
2023-01-18T07:15:12.663Z,2.13
2023-01-18T07:18:06.343Z,2.05
2023-01-18T07:21:04.233Z,2.30
2023-01-18T07:23:49.993Z,2.38
2023-01-18T07:26:35.933Z,2.72
2023-01-18T07:29:22.457Z,2.42
2023-01-18T07:32:08.308Z,3.30
2023-01-18T07:34:54.150Z,3.35
2023-01-18T07:37:39.928Z,3.60
2023-01-18T07:40:25.745Z,4.40
2023-01-18T07:43:11.563Z,4.43
2023-01-18T07:45:58.287Z,4.05
2023-01-18T07:48:45.067Z,3.28
2023-01-18T07:51:32.326Z,3.75
2023-01-18T07:54:19.204Z,4.18
2023-01-18T07:57:05.083Z,4.05
2023-01-18T07:59:51.114Z,6.13
2023-01-18T08:02:36.758Z,10.38
2023-01-18T08:05:26.862Z,9.63
2023-01-18T08:08:16.269Z,10.30
2023-01-18T08:11:04.122Z,15.30
2023-01-18T08:13:50.640Z,10.77
2023-01-18T08:16:36.755Z,8.95
2023-01-18T08:19:22.601Z,7.95
2023-01-18T08:22:08.607Z,7.45
2023-01-18T08:24:54.741Z,7.35
2023-01-18T08:27:40.876Z,5.28
2023-01-18T08:30:28.950Z,5.28
2023-01-18T08:33:15.174Z,3.78
2023-01-18T08:36:00.893Z,2.90
2023-01-18T08:38:51.159Z,3.20
2023-01-18T08:41:37.445Z,2.83
2023-01-18T08:44:23.585Z,3.10
2023-01-18T08:47:09.284Z,3.20
2023-01-18T08:49:55.598Z,2.60
2023-01-18T08:52:41.420Z,3.05
2023-01-18T08:55:28.222Z,3.33
2023-01-18T08:58:14.048Z,3.22
2023-01-18T09:01:00.038Z,3.67
2023-01-18T09:03:48.061Z,3.05
2023-01-18T09:06:34.113Z,3.67
2023-01-18T09:09:19.979Z,2.90
2023-01-18T09:12:06.014Z,3.80
2023-01-18T09:14:52.125Z,4.20
2023-01-18T09:17:37.899Z,5.43
2023-01-18T09:20:24.261Z,6.38
2023-01-18T09:23:10.306Z,4.55
2023-01-18T09:26:08.503Z,5.05
2023-01-18T09:28:54.630Z,3.80
2023-01-18T09:31:40.700Z,4.97
2023-01-18T09:34:26.633Z,4.90
2023-01-18T09:37:12.446Z,4.55
2023-01-18T09:39:58.281Z,3.83
2023-01-18T09:42:44.821Z,3.97
2023-01-18T09:45:33.354Z,3.72
2023-01-18T09:48:37.985Z,3.67
2023-01-18T09:51:28.388Z,2.67
2023-01-18T09:54:41.409Z,3.80
2023-01-18T09:57:51.987Z,5.85
2023-01-18T10:00:42.237Z,4.35
2023-01-18T10:03:53.752Z,4.22
2023-01-18T10:06:49.078Z,4.53
2023-01-18T10:09:42.565Z,4.68
2023-01-18T10:12:34.207Z,3.78
2023-01-18T10:15:22.326Z,3.97
2023-01-18T10:18:09.104Z,3.22
2023-01-18T10:20:59.032Z,4.35
2023-01-18T10:23:55.660Z,3.72
2023-01-18T10:26:41.950Z,6.30
2023-01-18T10:29:39.663Z,3.20
2023-01-18T10:32:26.253Z,4.20
2023-01-18T10:35:23.834Z,4.68
2023-01-18T10:38:12.989Z,3.78
2023-01-18T10:41:02.926Z,5.35
2023-01-18T10:43:49.086Z,3.50
2023-01-18T10:46:35.295Z,3.83
2023-01-18T10:49:37.472Z,3.90
2023-01-18T10:52:28.944Z,3.25
2023-01-18T10:55:19.825Z,5.78
2023-01-18T10:58:06.144Z,5.68
2023-01-18T11:00:55.583Z,3.40
2023-01-18T11:03:47.603Z,4.68
2023-01-18T11:06:46.353Z,9.73
2023-01-18T11:10:02.205Z,5.15
2023-01-18T11:12:52.185Z,4.55
2023-01-18T11:15:38.485Z,4.72
2023-01-18T11:18:24.209Z,3.35
2023-01-18T11:21:11.286Z,2.92
2023-01-18T11:23:58.068Z,3.15
2023-01-18T11:27:04.578Z,2.75
2023-01-18T11:29:50.620Z,2.88
2023-01-18T11:32:39.694Z,3.60
2023-01-18T11:35:34.344Z,4.22
2023-01-18T11:38:32.102Z,3.70
2023-01-18T11:41:23.489Z,4.03
2023-01-18T11:44:27.590Z,4.47
2023-01-18T11:47:20.742Z,6.18
2023-01-18T11:50:31.263Z,4.20
2023-01-18T11:53:31.428Z,3.35
2023-01-18T11:56:44.381Z,2.70
2023-01-18T11:59:30.992Z,2.15
2023-01-18T12:02:26.161Z,2.90
2023-01-18T12:05:33.368Z,3.40
2023-01-18T12:08:40.611Z,3.63
2023-01-18T12:11:53.955Z,3.13
2023-01-18T12:14:42.937Z,3.80
2023-01-18T12:17:35.092Z,3.55
2023-01-18T12:20:52.313Z,3.77
2023-01-18T12:24:03.248Z,3.78
2023-01-18T12:26:58.100Z,3.35
2023-01-18T12:30:00.313Z,3.67
2023-01-18T12:33:04.774Z,2.28
2023-01-18T12:36:13.746Z,3.90
2023-01-18T12:39:05.743Z,5.20
2023-01-18T12:42:20.195Z,6.43
2023-01-18T12:45:26.690Z,5.32
2023-01-18T12:48:16.790Z,7.38
2023-01-18T12:51:10.860Z,5.35
2023-01-18T12:54:18.959Z,5.25
2023-01-18T12:57:05.331Z,8.43
2023-01-18T12:59:58.184Z,7.63
2023-01-18T13:02:48.099Z,7.55
2023-01-18T13:05:52.651Z,7.90
2023-01-18T13:08:46.529Z,6.45
2023-01-18T13:11:37.940Z,8.43
2023-01-18T13:14:29.695Z,7.38
2023-01-18T13:17:41.873Z,8.10
2023-01-18T13:20:49.830Z,6.95
2023-01-18T13:23:39.970Z,6.38
2023-01-18T13:26:30.142Z,7.32
2023-01-18T13:29:29.942Z,6.57
2023-01-18T13:32:34.194Z,5.50
2023-01-18T13:35:32.863Z,5.55
2023-01-18T13:38:27.546Z,6.10
2023-01-18T13:41:27.630Z,6.30
2023-01-18T13:44:32.469Z,7.05
2023-01-18T13:47:41.708Z,4.65
2023-01-18T13:50:39.643Z,5.25
2023-01-18T13:53:25.554Z,5.57
2023-01-18T13:56:25.818Z,5.13
2023-01-18T13:59:11.831Z,5.65
2023-01-18T14:02:06.668Z,5.90
2023-01-18T14:05:04.914Z,5.63
2023-01-18T14:07:54.127Z,6.47
2023-01-18T14:10:47.792Z,5.78
2023-01-18T14:13:46.446Z,5.63
2023-01-18T14:16:35.074Z,6.25
2023-01-18T14:19:22.541Z,4.50
2023-01-18T14:22:31.501Z,4.57
2023-01-18T14:25:52.095Z,5.72
2023-01-18T14:28:50.428Z,4.47
2023-01-18T14:31:39.552Z,5.10
2023-01-18T14:34:40.157Z,8.32
2023-01-18T14:37:34.420Z,7.03
2023-01-18T14:40:22.972Z,7.18
2023-01-18T14:43:26.273Z,6.10
2023-01-18T14:46:21.069Z,5.22
2023-01-18T14:49:08.898Z,4.75
2023-01-18T14:51:54.839Z,4.80
2023-01-18T14:54:50.819Z,3.72
2023-01-18T14:57:38.009Z,3.65
2023-01-18T15:00:24.885Z,4.57
2023-01-18T15:03:19.434Z,4.18
2023-01-18T15:06:17.067Z,5.28
2023-01-18T15:09:05.935Z,8.07
2023-01-18T15:11:53.815Z,7.47
2023-01-18T15:14:44.483Z,8.88
2023-01-18T15:17:31.163Z,8.50
2023-01-18T15:20:17.378Z,7.00
2023-01-18T15:23:05.853Z,6.75
2023-01-18T15:25:53.447Z,5.60
2023-01-18T15:28:40.325Z,6.45
2023-01-18T15:31:27.799Z,6.80
2023-01-18T15:34:15.666Z,7.53
2023-01-18T15:37:04.484Z,7.95
2023-01-18T15:40:12.317Z,8.82
2023-01-18T15:43:05.918Z,8.88
2023-01-18T15:45:54.627Z,8.00
2023-01-18T15:48:56.175Z,7.70
2023-01-18T15:51:58.301Z,7.63
2023-01-18T15:54:45.014Z,6.93
2023-01-18T15:57:31.376Z,6.57
2023-01-18T16:00:56.036Z,4.80
2023-01-18T16:04:06.872Z,6.97
2023-01-18T16:06:53.034Z,6.13
2023-01-18T16:09:41.085Z,7.28
2023-01-18T16:12:33.962Z,7.20
2023-01-18T16:15:28.214Z,9.65
2023-01-18T16:18:14.506Z,12.38
2023-01-18T16:21:02.307Z,11.52
2023-01-18T16:23:49.760Z,15.07
2023-01-18T16:26:36.410Z,14.52
2023-01-18T16:29:22.774Z,17.48
2023-01-18T16:32:17.242Z,16.15
2023-01-18T16:35:10.027Z,16.80
2023-01-18T16:37:57.916Z,15.02
2023-01-18T16:40:46.322Z,13.80
2023-01-18T16:43:34.697Z,11.88
2023-01-18T16:46:21.058Z,12.63
2023-01-18T16:49:11.594Z,12.40
2023-01-18T16:51:57.774Z,14.48
2023-01-18T16:54:45.327Z,16.15
2023-01-18T16:57:32.017Z,13.00
2023-01-18T17:00:23.186Z,9.95
2023-01-18T17:03:09.130Z,11.27
2023-01-18T17:05:55.570Z,12.98
2023-01-18T17:08:41.421Z,14.77
2023-01-18T17:11:27.613Z,16.50
2023-01-18T17:14:13.859Z,18.00
2023-01-18T17:17:00.122Z,15.48
2023-01-18T17:19:46.342Z,18.42
2023-01-18T17:22:32.331Z,20.67
2023-01-18T17:25:18.960Z,24.02
2023-01-18T17:28:05.227Z,21.75
2023-01-18T17:30:51.407Z,15.50
2023-01-18T17:33:40.436Z,16.67
2023-01-18T17:36:26.585Z,20.08
2023-01-18T17:39:15.105Z,20.45
2023-01-18T17:42:01.631Z,15.68
2023-01-18T17:45:02.725Z,15.32
2023-01-18T17:47:51.853Z,16.13
2023-01-18T17:50:40.425Z,20.83
2023-01-18T17:53:26.512Z,18.45
2023-01-18T17:56:15.204Z,17.38
2023-01-18T17:59:01.328Z,19.98
2023-01-18T18:01:47.155Z,18.25
2023-01-18T18:04:33.535Z,15.60
2023-01-18T18:07:19.561Z,16.98
2023-01-18T18:10:06.090Z,16.73
2023-01-18T18:12:52.268Z,17.70
2023-01-18T18:15:38.418Z,16.48
2023-01-18T18:18:24.361Z,16.08
2023-01-18T18:21:10.993Z,16.67
2023-01-18T18:23:57.283Z,16.17
2023-01-18T18:26:43.373Z,16.88
2023-01-18T18:29:29.371Z,17.55
2023-01-18T18:32:15.471Z,18.17
2023-01-18T18:35:02.494Z,16.73
2023-01-18T18:37:48.749Z,18.55
2023-01-18T18:40:34.892Z,17.58
2023-01-18T18:43:20.882Z,17.48
2023-01-18T18:46:07.084Z,18.42
2023-01-18T18:48:54.908Z,17.42
2023-01-18T18:51:40.923Z,21.25
2023-01-18T18:54:27.068Z,18.02
2023-01-18T18:57:12.975Z,14.63
2023-01-18T18:59:58.889Z,13.68
2023-01-18T19:02:44.660Z,12.45
2023-01-18T19:05:31.145Z,14.75
2023-01-18T19:08:17.418Z,15.95
2023-01-18T19:11:03.318Z,12.57
2023-01-18T19:13:49.724Z,13.95
2023-01-18T19:16:36.930Z,13.00
2023-01-18T19:19:23.931Z,12.82
2023-01-18T19:22:11.633Z,14.45
2023-01-18T19:24:57.780Z,14.35
2023-01-18T19:27:44.033Z,16.52
2023-01-18T19:30:31.545Z,15.00
2023-01-18T19:33:18.357Z,16.52
2023-01-18T19:36:13.472Z,17.60
2023-01-18T19:39:02.258Z,22.30
2023-01-18T19:41:49.891Z,18.65
2023-01-18T19:44:36.105Z,21.05
2023-01-18T19:47:22.138Z,19.25
2023-01-18T19:50:08.105Z,19.13
2023-01-18T19:52:54.179Z,19.27
2023-01-18T19:55:40.377Z,22.30
2023-01-18T19:58:27.526Z,17.88
2023-01-18T20:01:26.637Z,15.57
2023-01-18T20:04:20.428Z,14.40
2023-01-18T20:07:06.151Z,15.50
2023-01-18T20:09:52.206Z,16.00
2023-01-18T20:12:38.453Z,30.00
2023-01-18T20:15:24.259Z,26.23
2023-01-18T20:18:10.207Z,23.75
2023-01-18T20:20:57.131Z,17.60
2023-01-18T20:23:44.865Z,16.75
2023-01-18T20:26:36.893Z,15.65
2023-01-18T20:29:24.389Z,15.70
2023-01-18T20:32:16.563Z,12.88
2023-01-18T20:35:03.690Z,13.52
2023-01-18T20:37:49.781Z,12.88
2023-01-18T20:40:35.938Z,13.52
2023-01-18T20:43:22.073Z,12.00
2023-01-18T20:46:10.405Z,11.65
2023-01-18T20:48:56.732Z,10.55
2023-01-18T20:51:44.139Z,9.88
2023-01-18T20:54:30.282Z,10.25
2023-01-18T20:57:18.814Z,10.75
2023-01-18T21:00:06.340Z,10.15
2023-01-18T21:02:52.636Z,7.72
2023-01-18T21:05:42.342Z,8.52
2023-01-18T21:08:28.321Z,7.68
2023-01-18T21:11:16.880Z,7.78
2023-01-18T21:14:04.119Z,7.68
2023-01-18T21:16:49.947Z,8.00
2023-01-18T21:19:35.756Z,9.05
2023-01-18T21:22:23.311Z,10.13
2023-01-18T21:25:09.659Z,7.82
2023-01-18T21:27:58.091Z,7.70
2023-01-18T21:30:44.368Z,7.60
2023-01-18T21:33:31.503Z,7.15
2023-01-18T21:36:18.228Z,8.85
2023-01-18T21:39:04.644Z,9.20
2023-01-18T21:42:18.594Z,9.43
2023-01-18T21:45:23.831Z,7.60
2023-01-18T21:48:09.970Z,7.68
2023-01-18T21:51:18.769Z,7.43
2023-01-18T21:54:16.766Z,7.38
2023-01-18T21:57:06.205Z,9.55
2023-01-18T21:59:52.388Z,8.82
2023-01-18T22:02:38.443Z,9.43
2023-01-18T22:05:24.299Z,7.53
2023-01-18T22:08:10.332Z,6.15
2023-01-18T22:10:56.088Z,6.72
2023-01-18T22:13:41.858Z,7.00
2023-01-18T22:16:30.511Z,6.53
2023-01-18T22:19:16.638Z,6.15
2023-01-18T22:22:03.005Z,6.47
2023-01-18T22:24:48.883Z,6.75
2023-01-18T22:27:35.250Z,7.60
2023-01-18T22:30:21.427Z,7.10
2023-01-18T22:33:07.301Z,5.78
2023-01-18T22:36:00.042Z,5.55
2023-01-18T22:38:46.213Z,5.85
2023-01-18T22:41:32.160Z,5.00
2023-01-18T22:44:18.130Z,5.72
2023-01-18T22:47:03.970Z,5.05
2023-01-18T22:49:49.676Z,5.80
2023-01-18T22:52:35.472Z,8.00
2023-01-18T22:55:21.339Z,6.82
2023-01-18T22:58:06.897Z,6.32
2023-01-18T23:00:52.967Z,7.50
2023-01-18T23:03:38.728Z,6.10
2023-01-18T23:06:24.546Z,5.35
2023-01-18T23:09:10.487Z,5.70
2023-01-18T23:11:56.593Z,5.78
2023-01-18T23:15:01.036Z,6.07
2023-01-18T23:17:46.895Z,5.32
2023-01-18T23:20:32.659Z,4.82
2023-01-18T23:23:18.445Z,4.53
2023-01-18T23:26:04.451Z,5.75
2023-01-18T23:28:50.395Z,5.55
2023-01-18T23:31:36.283Z,5.80
2023-01-18T23:34:22.191Z,4.43
2023-01-18T23:37:08.126Z,4.68
2023-01-18T23:40:12.425Z,4.38
2023-01-18T23:43:17.100Z,5.45
2023-01-18T23:46:21.927Z,4.25
2023-01-18T23:49:26.528Z,5.13
2023-01-18T23:52:31.229Z,4.28
2023-01-18T23:55:17.246Z,4.35
2023-01-18T23:58:03.653Z,5.72
